KPWA

Wiley Post Airport

Oklahoma City, Oklahoma, USA
METAR KPWA 180053Z 07003KT 10SM CLR 16/09 A3042 RMK AO2 SLP303 T01560094
Observed Flight Rules
Oct-18 @ 00:53 UTC (21 minutes ago) Visual Flight Rules
Wind Visibility Clouds
70° at 3 knots 10 miles
  • Clear skies
Temperatures Readings
Current 16°C / 61°F
Dewpoint 9°C / 48°F
Humidity 63%
Altimeter 30.42" Hg
Pressure 1030.3 hPa
Elevation 397
METAR KPWA 180053Z 07003KT 10SM CLR 16/09 A3042 RMK AO2 SLP303 T01560094
Observed Flight Rules
Oct-18 @ 00:53 UTC
(21 minutes ago)
VFR
Wind Visibility
70° at 3 knots 10 miles
Clouds
  • Clear skies
Temperature Dewpoint
16°C / 61°F 9°C / 48°F
Humidity Altimeter Pressure
63% 30.42" Hg 1030.3 hPa